sensor_id;sensor_type;location;lat;lon;timestamp;P1;durP1;ratioP1;P2;durP2;ratioP2
72895;SDS011;61036;53.224;6.554;2023-02-28T00:01:01;6.80;;;2.63;;
72895;SDS011;61036;53.224;6.554;2023-02-28T00:03:26;7.10;;;2.57;;
72895;SDS011;61036;53.224;6.554;2023-02-28T00:05:52;11.70;;;3.07;;
72895;SDS011;61036;53.224;6.554;2023-02-28T00:08:17;8.20;;;3.27;;
72895;SDS011;61036;53.224;6.554;2023-02-28T00:10:43;7.20;;;2.47;;
72895;SDS011;61036;53.224;6.554;2023-02-28T00:13:08;9.17;;;2.80;;
72895;SDS011;61036;53.224;6.554;2023-02-28T00:15:34;7.17;;;2.67;;
72895;SDS011;61036;53.224;6.554;2023-02-28T00:18:00;8.97;;;2.60;;
72895;SDS011;61036;53.224;6.554;2023-02-28T00:20:26;6.80;;;2.87;;
72895;SDS011;61036;53.224;6.554;2023-02-28T00:22:52;6.80;;;2.60;;
72895;SDS011;61036;53.224;6.554;2023-02-28T00:25:20;8.00;;;3.63;;
72895;SDS011;61036;53.224;6.554;2023-02-28T00:27:48;7.90;;;2.73;;
72895;SDS011;61036;53.224;6.554;2023-02-28T00:30:14;8.07;;;2.93;;
72895;SDS011;61036;53.224;6.554;2023-02-28T00:32:42;7.27;;;2.73;;
72895;SDS011;61036;53.224;6.554;2023-02-28T00:35:08;9.57;;;2.90;;
72895;SDS011;61036;53.224;6.554;2023-02-28T00:37:35;8.10;;;2.60;;
72895;SDS011;61036;53.224;6.554;2023-02-28T00:40:00;7.17;;;2.50;;
72895;SDS011;61036;53.224;6.554;2023-02-28T00:42:27;8.33;;;2.70;;
72895;SDS011;61036;53.224;6.554;2023-02-28T00:44:52;8.20;;;2.87;;
72895;SDS011;61036;53.224;6.554;2023-02-28T00:47:20;5.77;;;3.03;;
72895;SDS011;61036;53.224;6.554;2023-02-28T00:49:46;4.93;;;2.63;;
72895;SDS011;61036;53.224;6.554;2023-02-28T00:52:11;9.27;;;2.70;;
72895;SDS011;61036;53.224;6.554;2023-02-28T00:54:37;6.73;;;2.80;;
72895;SDS011;61036;53.224;6.554;2023-02-28T00:57:02;10.00;;;2.77;;
72895;SDS011;61036;53.224;6.554;2023-02-28T00:59:28;7.20;;;2.80;;
72895;SDS011;61036;53.224;6.554;2023-02-28T01:01:53;5.80;;;2.60;;
72895;SDS011;61036;53.224;6.554;2023-02-28T01:04:20;6.03;;;2.73;;
72895;SDS011;61036;53.224;6.554;2023-02-28T01:06:46;7.07;;;2.60;;
72895;SDS011;61036;53.224;6.554;2023-02-28T01:09:11;7.93;;;2.53;;
72895;SDS011;61036;53.224;6.554;2023-02-28T01:11:37;6.57;;;2.30;;
72895;SDS011;61036;53.224;6.554;2023-02-28T01:14:05;6.87;;;2.50;;
72895;SDS011;61036;53.224;6.554;2023-02-28T01:16:31;4.70;;;2.17;;
72895;SDS011;61036;53.224;6.554;2023-02-28T01:18:57;6.60;;;2.50;;
72895;SDS011;61036;53.224;6.554;2023-02-28T01:21:24;8.03;;;2.90;;
72895;SDS011;61036;53.224;6.554;2023-02-28T01:23:50;7.10;;;2.73;;
72895;SDS011;61036;53.224;6.554;2023-02-28T01:26:17;6.60;;;2.63;;
72895;SDS011;61036;53.224;6.554;2023-02-28T01:28:47;6.00;;;2.50;;
72895;SDS011;61036;53.224;6.554;2023-02-28T01:31:14;7.20;;;2.43;;
72895;SDS011;61036;53.224;6.554;2023-02-28T01:33:43;7.03;;;2.80;;
72895;SDS011;61036;53.224;6.554;2023-02-28T01:36:16;7.73;;;2.80;;
72895;SDS011;61036;53.224;6.554;2023-02-28T01:38:44;8.13;;;2.60;;
72895;SDS011;61036;53.224;6.554;2023-02-28T01:41:12;7.73;;;2.40;;
72895;SDS011;61036;53.224;6.554;2023-02-28T01:46:07;6.57;;;2.77;;
72895;SDS011;61036;53.224;6.554;2023-02-28T01:48:35;6.83;;;2.57;;
72895;SDS011;61036;53.224;6.554;2023-02-28T01:51:08;9.80;;;3.00;;
72895;SDS011;61036;53.224;6.554;2023-02-28T01:53:39;7.30;;;2.20;;
72895;SDS011;61036;53.224;6.554;2023-02-28T01:56:13;7.37;;;2.13;;
72895;SDS011;61036;53.224;6.554;2023-02-28T01:58:48;4.63;;;2.07;;
72895;SDS011;61036;53.224;6.554;2023-02-28T02:01:16;5.80;;;2.50;;
72895;SDS011;61036;53.224;6.554;2023-02-28T02:03:56;8.57;;;2.50;;
72895;SDS011;61036;53.224;6.554;2023-02-28T02:06:25;6.97;;;2.40;;
72895;SDS011;61036;53.224;6.554;2023-02-28T02:08:55;7.60;;;2.60;;
72895;SDS011;61036;53.224;6.554;2023-02-28T02:11:21;8.20;;;2.43;;
72895;SDS011;61036;53.224;6.554;2023-02-28T02:19:26;6.67;;;2.47;;
72895;SDS011;61036;53.224;6.554;2023-02-28T02:27:48;6.70;;;2.00;;
72895;SDS011;61036;53.224;6.554;2023-02-28T02:38:48;6.23;;;2.20;;
72895;SDS011;61036;53.224;6.554;2023-02-28T02:46:47;4.50;;;1.73;;
72895;SDS011;61036;53.224;6.554;2023-02-28T02:49:25;6.23;;;2.17;;
72895;SDS011;61036;53.224;6.554;2023-02-28T02:51:56;5.70;;;2.20;;
72895;SDS011;61036;53.224;6.554;2023-02-28T02:54:27;5.50;;;2.00;;
72895;SDS011;61036;53.224;6.554;2023-02-28T02:57:05;6.73;;;2.00;;
72895;SDS011;61036;53.224;6.554;2023-02-28T02:59:35;9.17;;;2.13;;
72895;SDS011;61036;53.224;6.554;2023-02-28T03:02:04;6.30;;;2.20;;
72895;SDS011;61036;53.224;6.554;2023-02-28T03:04:34;6.80;;;2.53;;
72895;SDS011;61036;53.224;6.554;2023-02-28T03:07:06;6.20;;;2.33;;
72895;SDS011;61036;53.224;6.554;2023-02-28T03:09:33;6.60;;;2.57;;
72895;SDS011;61036;53.224;6.554;2023-02-28T03:12:06;11.87;;;2.43;;
72895;SDS011;61036;53.224;6.554;2023-02-28T03:23:03;10.63;;;3.17;;
72895;SDS011;61036;53.224;6.554;2023-02-28T03:31:13;14.00;;;5.23;;
72895;SDS011;61036;53.224;6.554;2023-02-28T03:33:50;8.87;;;4.90;;
72895;SDS011;61036;53.224;6.554;2023-02-28T03:36:22;14.37;;;5.97;;
72895;SDS011;61036;53.224;6.554;2023-02-28T03:38:59;12.83;;;5.70;;
72895;SDS011;61036;53.224;6.554;2023-02-28T03:41:31;13.37;;;6.37;;
72895;SDS011;61036;53.224;6.554;2023-02-28T03:44:16;10.60;;;6.13;;
72895;SDS011;61036;53.224;6.554;2023-02-28T03:46:49;9.43;;;6.47;;
72895;SDS011;61036;53.224;6.554;2023-02-28T03:53:07;10.27;;;8.00;;
72895;SDS011;61036;53.224;6.554;2023-02-28T03:55:47;11.60;;;7.73;;
72895;SDS011;61036;53.224;6.554;2023-02-28T04:00:59;16.33;;;9.53;;
72895;SDS011;61036;53.224;6.554;2023-02-28T04:03:36;14.20;;;9.37;;
72895;SDS011;61036;53.224;6.554;2023-02-28T04:06:03;13.93;;;8.83;;
72895;SDS011;61036;53.224;6.554;2023-02-28T04:08:30;13.70;;;8.90;;
72895;SDS011;61036;53.224;6.554;2023-02-28T04:10:58;12.83;;;7.73;;
72895;SDS011;61036;53.224;6.554;2023-02-28T04:13:28;13.10;;;9.13;;
72895;SDS011;61036;53.224;6.554;2023-02-28T04:15:54;14.33;;;8.43;;
72895;SDS011;61036;53.224;6.554;2023-02-28T04:18:19;11.97;;;8.67;;
72895;SDS011;61036;53.224;6.554;2023-02-28T04:20:44;12.30;;;7.97;;
72895;SDS011;61036;53.224;6.554;2023-02-28T04:23:10;13.97;;;8.67;;
72895;SDS011;61036;53.224;6.554;2023-02-28T04:25:35;11.73;;;8.03;;
72895;SDS011;61036;53.224;6.554;2023-02-28T04:28:01;12.67;;;7.23;;
72895;SDS011;61036;53.224;6.554;2023-02-28T04:30:26;9.90;;;7.00;;
72895;SDS011;61036;53.224;6.554;2023-02-28T04:32:52;14.27;;;7.83;;
72895;SDS011;61036;53.224;6.554;2023-02-28T04:35:17;9.23;;;6.97;;
72895;SDS011;61036;53.224;6.554;2023-02-28T04:37:43;9.13;;;6.60;;
72895;SDS011;61036;53.224;6.554;2023-02-28T04:40:08;9.93;;;6.87;;
72895;SDS011;61036;53.224;6.554;2023-02-28T04:42:34;10.33;;;7.07;;
72895;SDS011;61036;53.224;6.554;2023-02-28T04:45:04;9.03;;;6.80;;
72895;SDS011;61036;53.224;6.554;2023-02-28T04:47:29;8.77;;;6.30;;
72895;SDS011;61036;53.224;6.554;2023-02-28T04:49:55;9.70;;;6.70;;
72895;SDS011;61036;53.224;6.554;2023-02-28T04:52:21;10.37;;;7.10;;
72895;SDS011;61036;53.224;6.554;2023-02-28T04:54:47;9.10;;;6.20;;
72895;SDS011;61036;53.224;6.554;2023-02-28T04:57:12;9.73;;;6.47;;
72895;SDS011;61036;53.224;6.554;2023-02-28T04:59:38;8.30;;;5.43;;
72895;SDS011;61036;53.224;6.554;2023-02-28T05:02:03;9.73;;;5.73;;
72895;SDS011;61036;53.224;6.554;2023-02-28T05:04:35;7.63;;;5.30;;
72895;SDS011;61036;53.224;6.554;2023-02-28T05:07:03;8.13;;;6.27;;
72895;SDS011;61036;53.224;6.554;2023-02-28T05:09:29;8.20;;;5.87;;
72895;SDS011;61036;53.224;6.554;2023-02-28T05:11:58;8.83;;;5.80;;
72895;SDS011;61036;53.224;6.554;2023-02-28T05:14:23;9.67;;;6.83;;
72895;SDS011;61036;53.224;6.554;2023-02-28T05:16:51;8.57;;;5.80;;
72895;SDS011;61036;53.224;6.554;2023-02-28T05:19:19;8.70;;;5.57;;
72895;SDS011;61036;53.224;6.554;2023-02-28T05:21:53;8.70;;;5.90;;
72895;SDS011;61036;53.224;6.554;2023-02-28T05:24:19;9.53;;;6.30;;
72895;SDS011;61036;53.224;6.554;2023-02-28T05:26:48;9.30;;;5.90;;
72895;SDS011;61036;53.224;6.554;2023-02-28T05:29:16;9.47;;;6.30;;
72895;SDS011;61036;53.224;6.554;2023-02-28T05:31:41;9.93;;;6.80;;
72895;SDS011;61036;53.224;6.554;2023-02-28T05:34:07;7.90;;;5.73;;
72895;SDS011;61036;53.224;6.554;2023-02-28T05:36:32;9.33;;;6.47;;
72895;SDS011;61036;53.224;6.554;2023-02-28T05:39:00;10.60;;;6.17;;
72895;SDS011;61036;53.224;6.554;2023-02-28T05:41:26;8.80;;;5.70;;
72895;SDS011;61036;53.224;6.554;2023-02-28T05:43:51;10.90;;;6.47;;
72895;SDS011;61036;53.224;6.554;2023-02-28T05:46:17;9.83;;;6.53;;
72895;SDS011;61036;53.224;6.554;2023-02-28T05:48:45;10.00;;;6.93;;
72895;SDS011;61036;53.224;6.554;2023-02-28T05:51:12;10.40;;;6.93;;
72895;SDS011;61036;53.224;6.554;2023-02-28T05:53:37;10.83;;;6.80;;
72895;SDS011;61036;53.224;6.554;2023-02-28T05:56:05;11.50;;;6.83;;
72895;SDS011;61036;53.224;6.554;2023-02-28T05:58:31;10.27;;;7.63;;
72895;SDS011;61036;53.224;6.554;2023-02-28T06:00:57;10.93;;;7.67;;
72895;SDS011;61036;53.224;6.554;2023-02-28T06:03:23;11.53;;;8.07;;
72895;SDS011;61036;53.224;6.554;2023-02-28T06:05:49;12.50;;;8.93;;
72895;SDS011;61036;53.224;6.554;2023-02-28T06:08:17;14.97;;;8.93;;
72895;SDS011;61036;53.224;6.554;2023-02-28T06:10:43;9.83;;;7.13;;
72895;SDS011;61036;53.224;6.554;2023-02-28T06:13:10;10.93;;;7.33;;
72895;SDS011;61036;53.224;6.554;2023-02-28T06:15:38;12.43;;;8.70;;
72895;SDS011;61036;53.224;6.554;2023-02-28T06:18:06;13.03;;;9.07;;
72895;SDS011;61036;53.224;6.554;2023-02-28T06:20:32;11.80;;;9.30;;
72895;SDS011;61036;53.224;6.554;2023-02-28T06:23:01;12.07;;;8.57;;
72895;SDS011;61036;53.224;6.554;2023-02-28T06:25:27;13.37;;;8.53;;
72895;SDS011;61036;53.224;6.554;2023-02-28T06:27:53;15.60;;;9.10;;
72895;SDS011;61036;53.224;6.554;2023-02-28T06:30:19;15.57;;;9.53;;
72895;SDS011;61036;53.224;6.554;2023-02-28T06:32:50;12.93;;;8.87;;
72895;SDS011;61036;53.224;6.554;2023-02-28T06:35:15;13.90;;;9.20;;
72895;SDS011;61036;53.224;6.554;2023-02-28T06:37:41;11.07;;;8.00;;
72895;SDS011;61036;53.224;6.554;2023-02-28T06:40:09;10.90;;;7.70;;
72895;SDS011;61036;53.224;6.554;2023-02-28T06:42:35;11.67;;;7.90;;
72895;SDS011;61036;53.224;6.554;2023-02-28T06:45:00;12.50;;;8.37;;
72895;SDS011;61036;53.224;6.554;2023-02-28T06:47:30;10.93;;;7.53;;
72895;SDS011;61036;53.224;6.554;2023-02-28T06:49:58;10.03;;;7.23;;
72895;SDS011;61036;53.224;6.554;2023-02-28T06:52:26;10.67;;;7.60;;
72895;SDS011;61036;53.224;6.554;2023-02-28T06:54:52;10.10;;;7.30;;
72895;SDS011;61036;53.224;6.554;2023-02-28T06:57:31;12.87;;;8.80;;
72895;SDS011;61036;53.224;6.554;2023-02-28T06:59:58;11.47;;;8.60;;
72895;SDS011;61036;53.224;6.554;2023-02-28T07:02:25;13.70;;;9.60;;
72895;SDS011;61036;53.224;6.554;2023-02-28T07:04:51;13.83;;;9.30;;
72895;SDS011;61036;53.224;6.554;2023-02-28T07:07:17;14.87;;;9.47;;
72895;SDS011;61036;53.224;6.554;2023-02-28T07:09:42;17.87;;;10.83;;
72895;SDS011;61036;53.224;6.554;2023-02-28T07:12:07;14.93;;;10.17;;
72895;SDS011;61036;53.224;6.554;2023-02-28T07:14:33;16.27;;;10.97;;
72895;SDS011;61036;53.224;6.554;2023-02-28T07:16:58;15.93;;;10.63;;
72895;SDS011;61036;53.224;6.554;2023-02-28T07:19:24;14.83;;;10.70;;
72895;SDS011;61036;53.224;6.554;2023-02-28T07:21:50;17.37;;;11.67;;
72895;SDS011;61036;53.224;6.554;2023-02-28T07:24:15;16.23;;;11.93;;
72895;SDS011;61036;53.224;6.554;2023-02-28T07:26:43;16.37;;;11.90;;
72895;SDS011;61036;53.224;6.554;2023-02-28T07:29:10;18.77;;;11.80;;
72895;SDS011;61036;53.224;6.554;2023-02-28T07:31:36;15.83;;;10.83;;
72895;SDS011;61036;53.224;6.554;2023-02-28T07:34:01;14.60;;;10.23;;
72895;SDS011;61036;53.224;6.554;2023-02-28T07:36:28;18.00;;;10.67;;
72895;SDS011;61036;53.224;6.554;2023-02-28T07:38:53;17.73;;;11.67;;
72895;SDS011;61036;53.224;6.554;2023-02-28T07:41:20;16.03;;;10.77;;
72895;SDS011;61036;53.224;6.554;2023-02-28T07:43:46;14.93;;;9.97;;
72895;SDS011;61036;53.224;6.554;2023-02-28T07:46:13;17.40;;;11.73;;
72895;SDS011;61036;53.224;6.554;2023-02-28T07:48:40;17.07;;;11.40;;
72895;SDS011;61036;53.224;6.554;2023-02-28T07:51:06;16.00;;;12.13;;
72895;SDS011;61036;53.224;6.554;2023-02-28T07:53:32;15.73;;;10.60;;
72895;SDS011;61036;53.224;6.554;2023-02-28T07:56:01;15.53;;;10.03;;
72895;SDS011;61036;53.224;6.554;2023-02-28T07:58:28;16.67;;;11.17;;
72895;SDS011;61036;53.224;6.554;2023-02-28T08:00:54;14.50;;;10.73;;
72895;SDS011;61036;53.224;6.554;2023-02-28T08:03:20;16.07;;;10.33;;
72895;SDS011;61036;53.224;6.554;2023-02-28T08:05:47;16.73;;;11.17;;
72895;SDS011;61036;53.224;6.554;2023-02-28T08:08:13;14.00;;;9.70;;
72895;SDS011;61036;53.224;6.554;2023-02-28T08:10:40;15.07;;;10.70;;
72895;SDS011;61036;53.224;6.554;2023-02-28T08:13:05;13.17;;;9.03;;
72895;SDS011;61036;53.224;6.554;2023-02-28T08:15:31;15.77;;;10.20;;
72895;SDS011;61036;53.224;6.554;2023-02-28T08:17:57;18.03;;;10.90;;
72895;SDS011;61036;53.224;6.554;2023-02-28T08:20:23;15.07;;;9.40;;
72895;SDS011;61036;53.224;6.554;2023-02-28T08:22:49;13.80;;;9.30;;
72895;SDS011;61036;53.224;6.554;2023-02-28T08:25:15;15.47;;;10.30;;
72895;SDS011;61036;53.224;6.554;2023-02-28T08:27:40;17.00;;;10.53;;
72895;SDS011;61036;53.224;6.554;2023-02-28T08:30:12;14.40;;;9.67;;
72895;SDS011;61036;53.224;6.554;2023-02-28T08:32:39;15.93;;;9.87;;
72895;SDS011;61036;53.224;6.554;2023-02-28T08:35:05;14.33;;;9.53;;
72895;SDS011;61036;53.224;6.554;2023-02-28T08:37:31;17.00;;;10.27;;
72895;SDS011;61036;53.224;6.554;2023-02-28T08:39:57;14.57;;;11.03;;
72895;SDS011;61036;53.224;6.554;2023-02-28T08:42:23;18.43;;;11.33;;
72895;SDS011;61036;53.224;6.554;2023-02-28T08:44:49;18.47;;;11.03;;
72895;SDS011;61036;53.224;6.554;2023-02-28T08:47:14;14.93;;;10.43;;
72895;SDS011;61036;53.224;6.554;2023-02-28T08:49:40;16.37;;;10.47;;
72895;SDS011;61036;53.224;6.554;2023-02-28T08:52:05;13.93;;;9.93;;
72895;SDS011;61036;53.224;6.554;2023-02-28T08:54:31;15.73;;;10.07;;
72895;SDS011;61036;53.224;6.554;2023-02-28T08:56:58;13.77;;;9.70;;
72895;SDS011;61036;53.224;6.554;2023-02-28T08:59:24;14.47;;;10.13;;
72895;SDS011;61036;53.224;6.554;2023-02-28T09:01:49;17.07;;;10.87;;
72895;SDS011;61036;53.224;6.554;2023-02-28T09:04:15;15.33;;;10.20;;
72895;SDS011;61036;53.224;6.554;2023-02-28T09:06:40;14.30;;;9.93;;
72895;SDS011;61036;53.224;6.554;2023-02-28T09:09:06;12.90;;;9.23;;
72895;SDS011;61036;53.224;6.554;2023-02-28T09:11:33;15.93;;;10.00;;
72895;SDS011;61036;53.224;6.554;2023-02-28T09:14:00;17.23;;;10.70;;
72895;SDS011;61036;53.224;6.554;2023-02-28T09:16:28;17.93;;;10.33;;
72895;SDS011;61036;53.224;6.554;2023-02-28T09:18:55;13.83;;;9.90;;
72895;SDS011;61036;53.224;6.554;2023-02-28T09:21:21;13.23;;;9.10;;
72895;SDS011;61036;53.224;6.554;2023-02-28T09:23:48;15.43;;;9.53;;
72895;SDS011;61036;53.224;6.554;2023-02-28T09:26:16;13.73;;;8.60;;
72895;SDS011;61036;53.224;6.554;2023-02-28T09:28:49;13.90;;;9.53;;
72895;SDS011;61036;53.224;6.554;2023-02-28T09:31:17;12.97;;;8.80;;
72895;SDS011;61036;53.224;6.554;2023-02-28T09:33:48;15.13;;;9.20;;
72895;SDS011;61036;53.224;6.554;2023-02-28T09:36:15;12.87;;;9.03;;
72895;SDS011;61036;53.224;6.554;2023-02-28T09:38:40;13.10;;;9.10;;
72895;SDS011;61036;53.224;6.554;2023-02-28T09:41:14;13.90;;;8.67;;
72895;SDS011;61036;53.224;6.554;2023-02-28T09:43:44;14.10;;;9.63;;
72895;SDS011;61036;53.224;6.554;2023-02-28T09:46:27;13.13;;;9.37;;
72895;SDS011;61036;53.224;6.554;2023-02-28T09:48:56;15.10;;;9.77;;
72895;SDS011;61036;53.224;6.554;2023-02-28T09:51:37;15.63;;;9.13;;
72895;SDS011;61036;53.224;6.554;2023-02-28T09:54:15;14.33;;;9.20;;
72895;SDS011;61036;53.224;6.554;2023-02-28T09:56:48;13.43;;;9.53;;
72895;SDS011;61036;53.224;6.554;2023-02-28T10:04:50;12.33;;;8.67;;
72895;SDS011;61036;53.224;6.554;2023-02-28T10:10:02;12.73;;;8.13;;
72895;SDS011;61036;53.224;6.554;2023-02-28T10:12:38;11.63;;;8.20;;
72895;SDS011;61036;53.224;6.554;2023-02-28T10:15:12;11.57;;;7.60;;
72895;SDS011;61036;53.224;6.554;2023-02-28T10:17:41;14.80;;;8.07;;
72895;SDS011;61036;53.224;6.554;2023-02-28T10:20:14;13.50;;;8.50;;
72895;SDS011;61036;53.224;6.554;2023-02-28T10:25:20;11.27;;;7.67;;
72895;SDS011;61036;53.224;6.554;2023-02-28T10:27:49;10.30;;;7.50;;
72895;SDS011;61036;53.224;6.554;2023-02-28T10:30:18;11.37;;;7.50;;
72895;SDS011;61036;53.224;6.554;2023-02-28T10:32:49;12.43;;;7.87;;
72895;SDS011;61036;53.224;6.554;2023-02-28T10:35:17;12.17;;;7.03;;
72895;SDS011;61036;53.224;6.554;2023-02-28T10:37:47;10.37;;;6.73;;
72895;SDS011;61036;53.224;6.554;2023-02-28T10:42:42;12.27;;;7.10;;
72895;SDS011;61036;53.224;6.554;2023-02-28T10:45:34;22.13;;;7.57;;
72895;SDS011;61036;53.224;6.554;2023-02-28T10:50:44;11.33;;;7.57;;
72895;SDS011;61036;53.224;6.554;2023-02-28T10:56:01;10.40;;;4.90;;
72895;SDS011;61036;53.224;6.554;2023-02-28T10:58:55;9.23;;;5.90;;
72895;SDS011;61036;53.224;6.554;2023-02-28T11:01:24;10.63;;;6.93;;
72895;SDS011;61036;53.224;6.554;2023-02-28T11:03:59;15.20;;;7.30;;
72895;SDS011;61036;53.224;6.554;2023-02-28T11:06:32;9.77;;;6.30;;
72895;SDS011;61036;53.224;6.554;2023-02-28T11:09:00;12.80;;;7.10;;
72895;SDS011;61036;53.224;6.554;2023-02-28T11:11:29;8.40;;;5.17;;
72895;SDS011;61036;53.224;6.554;2023-02-28T11:14:06;9.27;;;5.83;;
72895;SDS011;61036;53.224;6.554;2023-02-28T11:16:42;9.23;;;5.67;;
72895;SDS011;61036;53.224;6.554;2023-02-28T11:19:16;8.67;;;5.03;;
72895;SDS011;61036;53.224;6.554;2023-02-28T11:21:56;9.50;;;5.23;;
72895;SDS011;61036;53.224;6.554;2023-02-28T11:24:31;8.13;;;5.47;;
72895;SDS011;61036;53.224;6.554;2023-02-28T11:27:00;10.30;;;5.50;;
72895;SDS011;61036;53.224;6.554;2023-02-28T11:29:29;8.83;;;5.23;;
72895;SDS011;61036;53.224;6.554;2023-02-28T11:32:04;9.57;;;5.40;;
72895;SDS011;61036;53.224;6.554;2023-02-28T11:34:30;7.60;;;4.57;;
72895;SDS011;61036;53.224;6.554;2023-02-28T11:36:57;7.93;;;5.20;;
72895;SDS011;61036;53.224;6.554;2023-02-28T11:39:25;8.33;;;5.07;;
72895;SDS011;61036;53.224;6.554;2023-02-28T11:47:33;8.43;;;4.20;;
72895;SDS011;61036;53.224;6.554;2023-02-28T11:55:25;8.67;;;5.33;;
72895;SDS011;61036;53.224;6.554;2023-02-28T12:05:44;9.43;;;5.33;;
72895;SDS011;61036;53.224;6.554;2023-02-28T12:16:55;9.63;;;5.20;;
72895;SDS011;61036;53.224;6.554;2023-02-28T12:20:14;7.63;;;5.40;;
72895;SDS011;61036;53.224;6.554;2023-02-28T12:22:29;8.37;;;5.17;;
72895;SDS011;61036;53.224;6.554;2023-02-28T12:25:21;7.87;;;4.90;;
72895;SDS011;61036;53.224;6.554;2023-02-28T12:28:09;8.27;;;5.07;;
72895;SDS011;61036;53.224;6.554;2023-02-28T12:30:49;9.23;;;5.37;;
72895;SDS011;61036;53.224;6.554;2023-02-28T12:33:32;7.97;;;4.73;;
72895;SDS011;61036;53.224;6.554;2023-02-28T12:36:03;8.27;;;4.60;;
72895;SDS011;61036;53.224;6.554;2023-02-28T12:38:43;8.87;;;5.13;;
72895;SDS011;61036;53.224;6.554;2023-02-28T12:41:13;7.60;;;4.87;;
72895;SDS011;61036;53.224;6.554;2023-02-28T12:43:55;7.83;;;4.43;;
72895;SDS011;61036;53.224;6.554;2023-02-28T12:46:28;11.80;;;5.10;;
72895;SDS011;61036;53.224;6.554;2023-02-28T12:48:57;8.17;;;4.90;;
72895;SDS011;61036;53.224;6.554;2023-02-28T12:51:27;8.57;;;4.90;;
72895;SDS011;61036;53.224;6.554;2023-02-28T12:59:27;12.00;;;5.70;;
72895;SDS011;61036;53.224;6.554;2023-02-28T13:05:44;8.90;;;5.67;;
72895;SDS011;61036;53.224;6.554;2023-02-28T13:10:58;8.73;;;6.20;;
72895;SDS011;61036;53.224;6.554;2023-02-28T13:13:25;9.63;;;6.03;;
72895;SDS011;61036;53.224;6.554;2023-02-28T13:15:58;9.07;;;5.50;;
72895;SDS011;61036;53.224;6.554;2023-02-28T13:18:50;9.37;;;5.63;;
72895;SDS011;61036;53.224;6.554;2023-02-28T13:21:22;8.37;;;5.00;;
72895;SDS011;61036;53.224;6.554;2023-02-28T13:26:21;8.87;;;5.47;;
72895;SDS011;61036;53.224;6.554;2023-02-28T13:28:57;9.97;;;5.20;;
72895;SDS011;61036;53.224;6.554;2023-02-28T13:31:25;8.37;;;5.60;;
72895;SDS011;61036;53.224;6.554;2023-02-28T13:36:26;10.00;;;5.97;;
72895;SDS011;61036;53.224;6.554;2023-02-28T13:39:03;8.70;;;5.87;;
72895;SDS011;61036;53.224;6.554;2023-02-28T13:41:48;10.00;;;5.73;;
72895;SDS011;61036;53.224;6.554;2023-02-28T13:44:21;8.73;;;5.87;;
72895;SDS011;61036;53.224;6.554;2023-02-28T14:05:44;11.33;;;6.43;;
72895;SDS011;61036;53.224;6.554;2023-02-28T14:08:22;13.53;;;5.90;;
72895;SDS011;61036;53.224;6.554;2023-02-28T14:10:51;9.57;;;5.63;;
72895;SDS011;61036;53.224;6.554;2023-02-28T14:16:09;9.93;;;5.97;;
72895;SDS011;61036;53.224;6.554;2023-02-28T14:18:40;8.43;;;5.53;;
72895;SDS011;61036;53.224;6.554;2023-02-28T14:21:13;9.90;;;5.97;;
72895;SDS011;61036;53.224;6.554;2023-02-28T14:32:11;10.03;;;6.17;;
72895;SDS011;61036;53.224;6.554;2023-02-28T14:34:43;9.93;;;6.93;;
72895;SDS011;61036;53.224;6.554;2023-02-28T14:37:23;11.13;;;7.00;;
72895;SDS011;61036;53.224;6.554;2023-02-28T14:39:53;10.30;;;6.87;;
72895;SDS011;61036;53.224;6.554;2023-02-28T14:45:01;11.60;;;6.90;;
72895;SDS011;61036;53.224;6.554;2023-02-28T14:47:28;10.80;;;6.67;;
72895;SDS011;61036;53.224;6.554;2023-02-28T14:49:57;9.77;;;6.73;;
72895;SDS011;61036;53.224;6.554;2023-02-28T14:52:24;10.40;;;7.07;;
72895;SDS011;61036;53.224;6.554;2023-02-28T14:54:55;8.80;;;6.30;;
72895;SDS011;61036;53.224;6.554;2023-02-28T14:57:28;8.43;;;6.10;;
72895;SDS011;61036;53.224;6.554;2023-02-28T14:59:59;8.13;;;6.23;;
72895;SDS011;61036;53.224;6.554;2023-02-28T15:02:43;10.87;;;6.97;;
72895;SDS011;61036;53.224;6.554;2023-02-28T15:07:37;10.00;;;7.20;;
72895;SDS011;61036;53.224;6.554;2023-02-28T15:10:10;14.00;;;7.70;;
72895;SDS011;61036;53.224;6.554;2023-02-28T15:12:39;11.23;;;7.37;;
72895;SDS011;61036;53.224;6.554;2023-02-28T15:15:13;10.47;;;7.67;;
72895;SDS011;61036;53.224;6.554;2023-02-28T15:17:48;11.33;;;7.73;;
72895;SDS011;61036;53.224;6.554;2023-02-28T15:20:18;11.93;;;8.00;;
72895;SDS011;61036;53.224;6.554;2023-02-28T15:22:44;11.13;;;7.43;;
72895;SDS011;61036;53.224;6.554;2023-02-28T15:25:13;10.80;;;7.33;;
72895;SDS011;61036;53.224;6.554;2023-02-28T15:27:44;12.13;;;8.00;;
72895;SDS011;61036;53.224;6.554;2023-02-28T15:30:16;10.20;;;7.03;;
72895;SDS011;61036;53.224;6.554;2023-02-28T15:33:03;11.00;;;7.13;;
72895;SDS011;61036;53.224;6.554;2023-02-28T15:35:30;12.57;;;6.37;;
72895;SDS011;61036;53.224;6.554;2023-02-28T15:40:52;12.27;;;7.00;;
72895;SDS011;61036;53.224;6.554;2023-02-28T15:46:00;11.33;;;7.10;;
72895;SDS011;61036;53.224;6.554;2023-02-28T15:51:31;10.87;;;6.93;;
72895;SDS011;61036;53.224;6.554;2023-02-28T15:54:00;11.53;;;7.27;;
72895;SDS011;61036;53.224;6.554;2023-02-28T15:56:31;10.20;;;6.40;;
72895;SDS011;61036;53.224;6.554;2023-02-28T15:59:35;12.27;;;7.03;;
72895;SDS011;61036;53.224;6.554;2023-02-28T16:04:35;11.23;;;7.73;;
72895;SDS011;61036;53.224;6.554;2023-02-28T16:07:04;10.20;;;7.17;;
72895;SDS011;61036;53.224;6.554;2023-02-28T16:09:31;9.93;;;7.10;;
72895;SDS011;61036;53.224;6.554;2023-02-28T16:12:00;9.77;;;7.30;;
72895;SDS011;61036;53.224;6.554;2023-02-28T16:14:28;8.93;;;6.30;;
72895;SDS011;61036;53.224;6.554;2023-02-28T16:17:05;10.47;;;7.20;;
72895;SDS011;61036;53.224;6.554;2023-02-28T16:19:35;12.47;;;7.33;;
72895;SDS011;61036;53.224;6.554;2023-02-28T16:22:01;13.93;;;10.50;;
72895;SDS011;61036;53.224;6.554;2023-02-28T16:24:29;8.80;;;7.17;;
72895;SDS011;61036;53.224;6.554;2023-02-28T16:26:54;11.20;;;7.70;;
72895;SDS011;61036;53.224;6.554;2023-02-28T16:29:32;12.77;;;7.37;;
72895;SDS011;61036;53.224;6.554;2023-02-28T16:32:03;11.73;;;7.33;;
72895;SDS011;61036;53.224;6.554;2023-02-28T16:34:30;13.70;;;8.87;;
72895;SDS011;61036;53.224;6.554;2023-02-28T16:36:56;11.37;;;7.47;;
72895;SDS011;61036;53.224;6.554;2023-02-28T16:39:22;10.53;;;7.10;;
72895;SDS011;61036;53.224;6.554;2023-02-28T16:41:50;10.60;;;7.40;;
72895;SDS011;61036;53.224;6.554;2023-02-28T16:44:26;13.60;;;7.57;;
72895;SDS011;61036;53.224;6.554;2023-02-28T16:46:58;12.93;;;7.90;;
72895;SDS011;61036;53.224;6.554;2023-02-28T16:49:25;13.93;;;8.03;;
72895;SDS011;61036;53.224;6.554;2023-02-28T16:51:50;9.40;;;7.10;;
72895;SDS011;61036;53.224;6.554;2023-02-28T16:54:16;23.03;;;15.13;;
72895;SDS011;61036;53.224;6.554;2023-02-28T16:56:43;14.63;;;8.13;;
72895;SDS011;61036;53.224;6.554;2023-02-28T16:59:10;9.53;;;7.20;;
72895;SDS011;61036;53.224;6.554;2023-02-28T17:01:36;10.50;;;7.87;;
72895;SDS011;61036;53.224;6.554;2023-02-28T17:04:02;12.47;;;8.30;;
72895;SDS011;61036;53.224;6.554;2023-02-28T17:06:28;11.57;;;8.67;;
72895;SDS011;61036;53.224;6.554;2023-02-28T17:08:55;11.50;;;8.03;;
72895;SDS011;61036;53.224;6.554;2023-02-28T17:11:21;12.00;;;8.50;;
72895;SDS011;61036;53.224;6.554;2023-02-28T17:13:47;13.00;;;8.37;;
72895;SDS011;61036;53.224;6.554;2023-02-28T17:18:47;12.97;;;8.37;;
72895;SDS011;61036;53.224;6.554;2023-02-28T17:21:13;12.07;;;7.90;;
72895;SDS011;61036;53.224;6.554;2023-02-28T17:23:42;10.80;;;7.80;;
72895;SDS011;61036;53.224;6.554;2023-02-28T17:26:12;11.67;;;8.17;;
72895;SDS011;61036;53.224;6.554;2023-02-28T17:28:40;11.60;;;8.40;;
72895;SDS011;61036;53.224;6.554;2023-02-28T17:31:08;15.93;;;10.47;;